Time;durP1;ratioP1;P1;durP2;ratioP2;P2;SDS_P1;SDS_P2;PMS_P1;PMS_P2;Temp;Humidity;BMP_temperature;BMP_pressure;BME280_temperature;BME280_humidity;BME280_pressure;Samples;Min_cycle;Max_cycle;Signal;HPM_P1;HPM_P2
2021/07/11 00:01:43;;;;;;;8.58;6.05;;;;;;;19.68;71.42;99741.19;1727898;80;21548;-55
2021/07/11 00:04:09;;;;;;;5.42;4.33;;;;;;;19.69;71.41;99738.83;1730122;80;21529;-55
2021/07/11 00:06:37;;;;;;;7.53;5.20;;;;;;;19.68;71.34;99735.72;1728878;80;21122;-55
2021/07/11 00:09:05;;;;;;;5.15;4.62;;;;;;;19.64;71.31;99732.41;1730637;80;21650;-56
2021/07/11 00:11:32;;;;;;;8.55;5.10;;;;;;;19.63;71.27;99729.80;1734551;80;21222;-56
2021/07/11 00:14:01;;;;;;;4.35;3.95;;;;;;;19.61;71.24;99726.33;1727946;80;21513;-54
2021/07/11 00:16:28;;;;;;;4.53;3.20;;;;;;;19.57;71.25;99732.55;1729583;80;21041;-55
2021/07/11 00:18:55;;;;;;;8.50;4.25;;;;;;;19.54;71.29;99727.36;1728860;80;21453;-55
2021/07/11 00:21:22;;;;;;;8.00;4.05;;;;;;;19.53;71.40;99728.36;1729577;80;21193;-55
2021/07/11 00:23:48;;;;;;;6.47;4.40;;;;;;;19.51;71.52;99730.34;1729995;80;21905;-55
2021/07/11 00:26:15;;;;;;;4.70;4.28;;;;;;;19.51;71.59;99728.98;1730376;80;21518;-55
2021/07/11 00:28:41;;;;;;;5.80;4.85;;;;;;;19.51;71.60;99728.11;1730201;80;21149;-54
2021/07/11 00:31:07;;;;;;;5.62;4.03;;;;;;;19.51;71.60;99730.34;1732427;80;21097;-55
2021/07/11 00:33:33;;;;;;;5.47;4.60;;;;;;;19.51;71.56;99723.52;1730105;80;21138;-54
2021/07/11 00:36:00;;;;;;;7.72;4.65;;;;;;;19.50;71.51;99727.24;1731635;80;21102;-54
2021/07/11 00:38:26;;;;;;;6.83;4.70;;;;;;;19.48;71.53;99721.04;1730810;80;21279;-55
2021/07/11 00:40:53;;;;;;;4.33;4.03;;;;;;;19.45;71.51;99718.56;1697822;82;20955;-54
2021/07/11 00:43:19;;;;;;;5.58;3.70;;;;;;;19.43;71.50;99723.28;1735199;80;21908;-54
2021/07/11 00:45:48;;;;;;;7.45;3.42;;;;;;;19.41;71.56;99717.57;1732872;80;20959;-55
2021/07/11 00:48:15;;;;;;;4.00;3.40;;;;;;;19.40;71.65;99719.92;1732273;80;21093;-56
2021/07/11 00:50:42;;;;;;;7.65;3.65;;;;;;;19.38;71.63;99713.27;1731521;80;21073;-56
2021/07/11 00:53:13;;;;;;;8.58;5.00;;;;;;;19.37;71.66;99712.89;1733162;80;21140;-55
2021/07/11 00:55:42;;;;;;;8.20;5.10;;;;;;;19.36;71.69;99713.02;1734338;81;21556;-56
2021/07/11 00:58:09;;;;;;;5.15;4.65;;;;;;;19.34;71.60;99711.77;1736668;80;21793;-55
2021/07/11 01:00:37;;;;;;;5.47;4.95;;;;;;;19.30;71.59;99707.59;1732758;80;21079;-54
2021/07/11 01:03:10;;;;;;;4.22;3.87;;;;;;;19.27;71.68;99716.02;1734575;80;20899;-55
2021/07/11 01:05:40;;;;;;;6.40;4.12;;;;;;;19.25;71.85;99715.28;1731694;80;21524;-55
2021/07/11 01:08:42;;;;;;;4.62;4.22;;;;;;;19.23;71.84;99709.08;1710936;81;20935;-54
2021/07/11 01:11:11;;;;;;;6.62;4.95;;;;;;;19.21;71.90;99709.73;1734707;80;20876;-55
2021/07/11 01:13:40;;;;;;;7.85;4.12;;;;;;;19.19;72.07;99707.12;1732853;81;20984;-55
2021/07/11 01:16:11;;;;;;;4.70;3.52;;;;;;;19.20;72.18;99703.91;1737493;80;20868;-55
2021/07/11 01:18:39;;;;;;;4.72;4.20;;;;;;;19.18;72.03;99701.30;1673653;83;21060;-54
2021/07/11 01:21:15;;;;;;;9.65;4.37;;;;;;;19.17;71.94;99709.61;1669954;83;20909;-55
2021/07/11 01:24:10;;;;;;;7.33;4.65;;;;;;;19.14;71.97;99701.17;1731171;80;21036;-55
2021/07/11 01:26:36;;;;;;;5.45;5.03;;;;;;;19.12;71.88;99700.95;1733143;80;21104;-56
2021/07/11 01:29:04;;;;;;;9.45;5.55;;;;;;;19.07;71.79;99703.19;1714262;80;20868;-55
2021/07/11 01:31:30;;;;;;;5.55;3.75;;;;;;;19.03;71.82;99706.69;1733459;80;21077;-56
2021/07/11 01:33:57;;;;;;;7.87;3.90;;;;;;;19.01;71.93;99711.89;1731414;80;21092;-55
2021/07/11 01:36:25;;;;;;;10.28;4.10;;;;;;;18.98;72.12;99713.50;1732310;81;20958;-55
2021/07/11 01:38:52;;;;;;;6.53;3.02;;;;;;;18.95;72.18;99710.55;1732787;80;21079;-55
2021/07/11 01:41:20;;;;;;;6.87;3.67;;;;;;;18.94;72.19;99707.95;1730091;80;21029;-56
2021/07/11 01:43:52;;;;;;;10.30;4.70;;;;;;;18.92;72.19;99706.70;1732049;80;21894;-55
2021/07/11 01:46:19;;;;;;;5.03;4.28;;;;;;;18.90;72.18;99703.23;1712284;81;20928;-56
2021/07/11 01:48:45;;;;;;;8.35;3.87;;;;;;;18.88;72.17;99703.35;1727483;80;21536;-56
2021/07/11 01:51:12;;;;;;;4.58;4.15;;;;;;;18.85;72.32;99704.99;1735181;80;21189;-56
2021/07/11 01:53:41;;;;;;;4.20;3.75;;;;;;;18.83;72.15;99704.25;1732304;80;21049;-55
2021/07/11 01:56:08;;;;;;;4.75;3.25;;;;;;;18.80;72.11;99703.13;1738888;80;21145;-56
2021/07/11 01:58:35;;;;;;;4.75;3.25;;;;;;;18.77;72.15;99707.48;1736722;80;21114;-56
2021/07/11 02:01:05;;;;;;;4.67;3.12;;;;;;;18.75;72.21;99702.66;1735157;80;21077;-55
2021/07/11 02:03:32;;;;;;;4.15;3.37;;;;;;;18.76;72.30;99711.20;1739714;80;23378;-56
2021/07/11 02:06:04;;;;;;;7.55;4.83;;;;;;;18.77;72.32;99706.63;1736763;80;20961;-56
2021/07/11 02:08:35;;;;;;;6.28;4.15;;;;;;;18.77;72.35;99706.63;1735840;80;21040;-55
2021/07/11 02:11:02;;;;;;;6.00;5.42;;;;;;;18.75;72.37;99704.02;1712729;80;21127;-55
2021/07/11 02:13:54;;;;;;;6.60;6.08;;;;;;;18.73;72.38;99710.09;1735448;80;21072;-55
2021/07/11 02:16:48;;;;;;;5.78;4.58;;;;;;;18.72;72.39;99712.94;1727960;80;21122;-55
2021/07/11 02:19:18;;;;;;;8.73;5.85;;;;;;;18.71;72.51;99717.55;1702128;82;21612;-55
2021/07/11 02:21:45;;;;;;;5.45;4.95;;;;;;;18.68;72.57;99723.24;1679402;83;21155;-54
2021/07/11 02:24:13;;;;;;;7.50;4.47;;;;;;;18.67;72.72;99722.87;1674135;83;21375;-56
2021/07/11 02:26:40;;;;;;;5.95;4.67;;;;;;;18.69;72.78;99725.47;1679956;83;21105;-56
2021/07/11 02:29:07;;;;;;;6.20;4.53;;;;;;;18.70;72.82;99729.45;1701477;82;21769;-54
2021/07/11 02:31:36;;;;;;;5.53;5.12;;;;;;;18.73;72.82;99733.26;1680415;83;21049;-54
2021/07/11 02:34:04;;;;;;;9.20;4.92;;;;;;;18.75;72.86;99732.64;1699442;82;21046;-55
2021/07/11 02:36:30;;;;;;;5.78;5.28;;;;;;;18.77;72.88;99728.44;1678615;83;21148;-55
2021/07/11 02:39:17;;;;;;;6.33;5.72;;;;;;;18.77;72.88;99732.03;1703266;82;21108;-55
2021/07/11 02:42:03;;;;;;;5.58;5.03;;;;;;;18.79;72.96;99733.27;1699713;82;21116;-54
2021/07/11 02:44:31;;;;;;;6.95;4.17;;;;;;;18.80;73.06;99732.25;1705982;82;20927;-56
2021/07/11 02:47:08;;;;;;;6.75;3.62;;;;;;;18.82;73.24;99737.96;1683359;83;20967;-54
2021/07/11 02:49:34;;;;;;;4.40;3.95;;;;;;;18.85;73.37;99735.48;1677740;82;21118;-55
2021/07/11 02:52:06;;;;;;;6.03;4.30;;;;;;;18.89;73.49;99731.00;1672641;83;21162;-55
2021/07/11 02:54:38;;;;;;;6.45;5.37;;;;;;;18.93;73.55;99734.84;1709188;81;21829;-56
2021/07/11 02:57:06;;;;;;;7.67;5.70;;;;;;;18.97;73.66;99736.34;1713795;80;20907;-55
2021/07/11 02:59:34;;;;;;;6.55;5.25;;;;;;;18.99;73.76;99732.47;1739415;80;21443;-55
2021/07/11 03:02:03;;;;;;;6.78;5.75;;;;;;;19.02;73.81;99730.86;1735480;80;21435;-56
2021/07/11 03:04:39;;;;;;;7.45;5.55;;;;;;;19.04;73.97;99732.97;1740322;80;20923;-54
2021/07/11 03:07:06;;;;;;;4.40;3.77;;;;;;;19.08;74.12;99725.38;1736134;80;24819;-54
2021/07/11 03:09:34;;;;;;;5.37;4.20;;;;;;;19.11;74.23;99731.95;1738140;80;21057;-54
2021/07/11 03:12:01;;;;;;;5.12;3.92;;;;;;;19.12;74.45;99738.66;1745352;80;21093;-55
2021/07/11 03:14:28;;;;;;;9.20;4.40;;;;;;;19.16;74.61;99740.11;1735565;80;21323;-56
2021/07/11 03:16:57;;;;;;;4.22;3.75;;;;;;;19.20;74.68;99738.88;1711226;80;21120;-56
2021/07/11 03:19:27;;;;;;;5.12;3.83;;;;;;;19.23;74.57;99735.88;1736186;80;22264;-54
2021/07/11 03:21:55;;;;;;;6.72;4.05;;;;;;;19.28;74.67;99731.41;1737477;80;21030;-56
2021/07/11 03:24:28;;;;;;;6.55;4.28;;;;;;;19.33;74.73;99735.09;1735637;80;21093;-55
2021/07/11 03:26:56;;;;;;;;;;;;;;;19.38;74.94;99736.46;1743992;80;21077;-54
2021/07/11 03:29:39;;;;;;;4.45;4.05;;;;;;;19.45;75.04;99740.40;1740130;80;20312;-55
2021/07/11 03:32:07;;;;;;;3.75;2.85;;;;;;;19.49;75.16;99732.33;1738573;80;21751;-55
2021/07/11 03:34:34;;;;;;;6.25;4.28;;;;;;;19.57;75.27;99727.08;1736862;80;21057;-53
2021/07/11 03:37:10;;;;;;;5.83;5.33;;;;;;;19.65;75.36;99727.78;1736171;80;21631;-55
2021/07/11 03:39:44;;;;;;;7.95;4.33;;;;;;;19.75;75.72;99728.73;1737622;80;21041;-55
2021/07/11 03:42:11;;;;;;;5.78;3.05;;;;;;;19.84;75.92;99731.16;1743735;80;20908;-55
2021/07/11 03:44:40;;;;;;;6.35;3.98;;;;;;;19.93;75.89;99731.73;1744134;80;22210;-54
2021/07/11 03:47:09;;;;;;;7.08;4.65;;;;;;;19.98;75.83;99733.58;1741558;80;20884;-55
2021/07/11 03:49:35;;;;;;;4.65;4.15;;;;;;;20.04;75.71;99734.41;1741397;80;20907;-54
2021/07/11 03:52:04;;;;;;;4.17;3.77;;;;;;;20.10;75.74;99739.32;1750545;80;21061;-53
2021/07/11 03:54:37;;;;;;;4.97;4.45;;;;;;;20.17;75.67;99735.05;1748832;80;20914;-54
2021/07/11 03:57:06;;;;;;;5.55;3.90;;;;;;;20.26;75.81;99736.97;1744983;80;21358;-54
2021/07/11 03:59:32;;;;;;;6.28;5.67;;;;;;;20.33;75.71;99733.22;1746766;80;20875;-54
2021/07/11 04:02:02;;;;;;;6.85;6.17;;;;;;;20.41;75.44;99723.86;1749249;80;21006;-55
2021/07/11 04:04:28;;;;;;;11.45;6.22;;;;;;;20.49;75.11;99732.24;1749707;80;20973;-54
2021/07/11 04:06:56;;;;;;;7.80;5.60;;;;;;;20.59;75.15;99726.78;1743829;80;21380;-56
2021/07/11 04:09:22;;;;;;;6.67;4.83;;;;;;;20.69;75.20;99729.06;1747658;80;21505;-54
2021/07/11 04:11:50;;;;;;;5.87;4.75;;;;;;;20.80;75.49;99732.20;1746871;80;20944;-54
2021/07/11 04:14:20;;;;;;;7.95;5.35;;;;;;;20.90;75.75;99725.76;1749189;80;20875;-56
2021/07/11 04:16:53;;;;;;;10.48;5.28;;;;;;;21.00;75.81;99718.44;1748105;81;20903;-54
2021/07/11 04:19:24;;;;;;;7.87;5.53;;;;;;;21.12;75.62;99720.53;1748349;80;20966;-53
2021/07/11 04:21:53;;;;;;;10.65;7.35;;;;;;;21.25;75.01;99723.05;1747055;80;21834;-56
2021/07/11 04:24:23;;;;;;;6.90;6.28;;;;;;;21.39;74.26;99722.12;1744691;80;21171;-55
2021/07/11 04:26:49;;;;;;;10.85;6.35;;;;;;;21.53;73.57;99727.16;1747174;80;21509;-56
2021/07/11 04:29:16;;;;;;;8.48;6.80;;;;;;;21.66;72.94;99722.77;1747023;80;21874;-55
2021/07/11 04:31:44;;;;;;;8.78;5.33;;;;;;;21.79;71.97;99723.83;1746887;80;21001;-55
2021/07/11 04:34:33;;;;;;;9.13;5.85;;;;;;;21.92;71.27;99721.66;1744394;80;21117;-56
2021/07/11 04:37:04;;;;;;;13.20;5.65;;;;;;;22.04;70.76;99716.89;1747043;80;21492;-55
2021/07/11 04:39:32;;;;;;;5.30;3.42;;;;;;;22.18;70.26;99713.70;1744382;80;21036;-56
2021/07/11 04:41:59;;;;;;;8.63;3.12;;;;;;;22.30;69.26;99710.26;1741453;80;21131;-57
2021/07/11 04:44:27;;;;;;;6.22;3.65;;;;;;;22.42;68.25;99722.28;1744242;80;21425;-56
2021/07/11 04:46:53;;;;;;;3.75;3.20;;;;;;;22.56;67.87;99723.66;1745336;80;22045;-56
2021/07/11 04:49:22;;;;;;;2.47;2.27;;;;;;;22.69;67.25;99726.94;1741785;80;21209;-56
2021/07/11 04:51:50;;;;;;;2.98;2.72;;;;;;;22.86;66.13;99726.67;1738065;80;21121;-55
2021/07/11 04:54:17;;;;;;;3.27;2.98;;;;;;;22.98;65.27;99723.55;1737919;80;21765;-56
2021/07/11 04:56:44;;;;;;;9.48;2.77;;;;;;;23.10;64.85;99724.21;1736637;80;21074;-57
2021/07/11 04:59:10;;;;;;;3.85;2.87;;;;;;;23.19;64.09;99723.28;1735223;80;21240;-56
2021/07/11 05:01:36;;;;;;;4.08;3.02;;;;;;;23.30;63.49;99723.58;1736311;80;21160;-57
2021/07/11 05:04:03;;;;;;;7.10;2.70;;;;;;;23.40;63.71;99724.34;1735595;80;21087;-55
2021/07/11 05:06:30;;;;;;;6.85;2.45;;;;;;;23.50;63.79;99727.92;1735527;80;21077;-57
2021/07/11 05:08:56;;;;;;;1.72;1.62;;;;;;;23.59;63.00;99728.86;1739952;80;21390;-56
2021/07/11 05:11:23;;;;;;;4.40;1.80;;;;;;;23.68;61.93;99722.42;1739704;80;21573;-58
2021/07/11 05:13:49;;;;;;;2.08;1.77;;;;;;;23.77;60.90;99722.85;1740970;80;21536;-55
2021/07/11 05:16:15;;;;;;;2.02;1.82;;;;;;;23.88;60.77;99723.12;1740146;80;21113;-57
2021/07/11 05:18:42;;;;;;;2.98;2.52;;;;;;;23.97;60.36;99725.78;1737941;80;21130;-54
2021/07/11 05:21:08;;;;;;;3.70;2.10;;;;;;;24.06;59.34;99725.33;1738976;80;21128;-55
2021/07/11 05:23:36;;;;;;;6.87;1.95;;;;;;;24.17;59.10;99729.17;1742493;80;21211;-57
2021/07/11 05:26:02;;;;;;;3.90;1.82;;;;;;;24.26;59.24;99728.74;1741255;80;21101;-55
2021/07/11 05:28:28;;;;;;;1.60;1.50;;;;;;;24.34;59.13;99724.67;1739939;80;21077;-56
2021/07/11 05:30:55;;;;;;;2.15;1.77;;;;;;;24.42;58.01;99729.71;1743404;80;21596;-56
2021/07/11 05:33:21;;;;;;;1.80;1.70;;;;;;;24.50;58.00;99732.51;1740205;80;21536;-57
2021/07/11 05:35:48;;;;;;;6.00;2.15;;;;;;;24.59;57.90;99729.80;1737536;80;21150;-55
2021/07/11 05:38:14;;;;;;;3.77;1.80;;;;;;;24.66;57.86;99733.14;1742055;80;21034;-56
2021/07/11 05:40:41;;;;;;;3.33;1.65;;;;;;;24.74;57.82;99731.80;1737343;80;21408;-57
2021/07/11 05:43:08;;;;;;;4.72;1.60;;;;;;;24.81;57.93;99725.98;1739350;80;21133;-55
2021/07/11 05:45:36;;;;;;;2.17;1.60;;;;;;;24.89;57.06;99724.63;1737552;80;22127;-57
2021/07/11 05:48:02;;;;;;;1.82;1.72;;;;;;;24.99;56.48;99725.05;1741463;80;21524;-55
2021/07/11 05:50:28;;;;;;;1.72;1.20;;;;;;;25.06;56.65;99724.21;1740069;80;21035;-57
2021/07/11 05:52:55;;;;;;;2.40;1.45;;;;;;;25.14;56.19;99725.61;1706953;82;21134;-56
2021/07/11 05:55:22;;;;;;;1.32;1.17;;;;;;;25.23;55.78;99723.75;1734500;80;21088;-55
2021/07/11 05:57:48;;;;;;;2.00;1.40;;;;;;;25.31;55.28;99722.39;1740477;80;21564;-56
2021/07/11 06:00:18;;;;;;;1.70;1.35;;;;;;;25.41;54.93;99731.37;1741003;80;20989;-56
2021/07/11 06:02:45;;;;;;;3.85;1.40;;;;;;;25.52;54.91;99731.02;1743275;80;21112;-55
2021/07/11 06:05:11;;;;;;;1.92;1.82;;;;;;;25.60;55.18;99734.37;1735596;80;21081;-56
2021/07/11 06:07:38;;;;;;;2.45;1.87;;;;;;;25.68;55.15;99730.23;1735771;80;21506;-58
2021/07/11 06:10:06;;;;;;;2.15;1.65;;;;;;;25.75;55.84;99724.89;1735995;80;21069;-55
2021/07/11 06:12:34;;;;;;;3.02;2.00;;;;;;;25.83;55.60;99722.14;1735500;81;22132;-56
2021/07/11 06:15:00;;;;;;;3.35;1.92;;;;;;;25.89;55.46;99718.69;1736196;80;21052;-58
2021/07/11 06:17:27;;;;;;;1.92;1.80;;;;;;;25.96;55.53;99721.09;1735568;80;21058;-57
2021/07/11 06:19:54;;;;;;;1.25;1.10;;;;;;;26.03;55.05;99717.98;1734678;80;21521;-56
2021/07/11 06:22:20;;;;;;;3.95;1.60;;;;;;;26.09;54.05;99716.45;1739265;80;21532;-55
2021/07/11 06:24:47;;;;;;;5.67;1.12;;;;;;;26.16;54.11;99717.47;1734825;80;21584;-57
2021/07/11 06:27:13;;;;;;;3.47;1.02;;;;;;;26.21;53.35;99713.13;1735929;80;21081;-55
2021/07/11 06:29:40;;;;;;;4.62;0.98;;;;;;;26.29;53.44;99713.66;1737253;80;21049;-56
2021/07/11 06:32:07;;;;;;;1.77;1.22;;;;;;;26.34;52.60;99714.88;1737376;80;21066;-57
2021/07/11 06:34:33;;;;;;;1.10;1.00;;;;;;;26.42;51.85;99718.66;1736490;80;21080;-56
2021/07/11 06:36:59;;;;;;;7.70;1.00;;;;;;;26.48;52.23;99712.42;1739808;80;21115;-58
2021/07/11 06:39:26;;;;;;;1.00;0.90;;;;;;;26.57;51.32;99712.23;1737224;80;21063;-56
2021/07/11 06:41:52;;;;;;;1.30;1.20;;;;;;;26.66;51.47;99718.06;1736779;80;22341;-57
2021/07/11 06:44:18;;;;;;;2.67;0.80;;;;;;;26.74;50.37;99713.03;1737715;80;21488;-57
2021/07/11 06:46:45;;;;;;;2.33;0.80;;;;;;;26.81;50.06;99709.03;1739667;80;21567;-56
2021/07/11 06:49:12;;;;;;;1.10;0.90;;;;;;;26.87;49.58;99702.81;1737558;80;21524;-55
2021/07/11 06:51:38;;;;;;;1.15;0.80;;;;;;;26.96;48.66;99705.40;1733794;80;21695;-57
2021/07/11 06:54:04;;;;;;;3.72;0.80;;;;;;;27.03;47.10;99700.00;1728460;80;21433;-53
2021/07/11 06:56:31;;;;;;;2.90;0.80;;;;;;;27.10;47.01;99703.23;1730506;80;21075;-58
2021/07/11 06:58:57;;;;;;;3.08;0.72;;;;;;;27.16;47.10;99701.64;1731855;81;21051;-57
2021/07/11 07:01:23;;;;;;;2.98;0.75;;;;;;;27.23;45.76;99698.49;1732232;80;21112;-57
2021/07/11 07:03:50;;;;;;;1.90;0.70;;;;;;;27.31;44.51;99707.25;1731266;80;21125;-55
2021/07/11 07:06:16;;;;;;;0.80;0.80;;;;;;;27.38;43.75;99704.13;1726781;80;21120;-58
2021/07/11 07:08:43;;;;;;;0.80;0.80;;;;;;;27.45;44.19;99700.95;1730434;80;21151;-54
2021/07/11 07:11:09;;;;;;;0.93;0.80;;;;;;;27.53;45.54;99700.90;1729426;80;21089;-57
2021/07/11 07:13:36;;;;;;;1.27;0.80;;;;;;;27.62;43.86;99704.50;1729143;81;21116;-56
2021/07/11 07:16:03;;;;;;;5.60;0.82;;;;;;;27.71;44.10;99703.39;1733399;80;21073;-57
2021/07/11 07:18:31;;;;;;;4.87;0.78;;;;;;;27.79;44.45;99709.72;1733926;80;20896;-58
2021/07/11 07:20:58;;;;;;;2.08;0.60;;;;;;;27.88;43.13;99705.50;1731911;80;21154;-57
2021/07/11 07:23:24;;;;;;;2.17;0.68;;;;;;;27.96;42.07;99704.91;1728015;81;21054;-57
2021/07/11 07:25:50;;;;;;;3.27;0.60;;;;;;;28.06;40.71;99708.28;1730996;80;22510;-58
2021/07/11 07:28:17;;;;;;;2.80;0.80;;;;;;;28.14;41.03;99709.59;1729482;80;21381;-57
2021/07/11 07:30:43;;;;;;;1.15;0.70;;;;;;;28.23;42.10;99714.55;1728988;80;21132;-57
2021/07/11 07:33:10;;;;;;;2.87;0.70;;;;;;;28.31;42.84;99707.55;1728960;80;21105;-56
2021/07/11 07:35:36;;;;;;;1.57;0.72;;;;;;;28.41;43.02;99712.26;1730630;80;21086;-58
2021/07/11 07:38:03;;;;;;;0.85;0.80;;;;;;;28.49;42.77;99708.05;1728040;81;21105;-57
2021/07/11 07:40:29;;;;;;;1.00;0.70;;;;;;;28.58;42.32;99710.20;1733480;80;21035;-57
2021/07/11 07:42:56;;;;;;;2.17;0.82;;;;;;;28.66;42.85;99707.34;1729280;80;21050;-56
2021/07/11 07:45:22;;;;;;;0.75;0.70;;;;;;;28.74;42.15;99706.38;1734242;80;21106;-57
2021/07/11 07:47:48;;;;;;;0.90;0.70;;;;;;;28.81;41.23;99704.59;1734233;80;21136;-57
2021/07/11 07:50:16;;;;;;;1.30;0.70;;;;;;;28.87;40.11;99699.66;1732185;80;21118;-56
2021/07/11 07:52:43;;;;;;;2.35;0.70;;;;;;;28.92;39.34;99703.55;1733005;80;21059;-56
2021/07/11 07:55:10;;;;;;;4.60;1.00;;;;;;;28.98;38.63;99699.17;1729711;80;21100;-57
2021/07/11 07:57:36;;;;;;;1.17;0.70;;;;;;;29.06;39.47;99700.97;1730344;81;21441;-58
2021/07/11 08:00:11;;;;;;;0.70;0.60;;;;;;;29.12;38.91;99704.34;1732903;80;21282;-56
2021/07/11 08:02:39;;;;;;;0.70;0.70;;;;;;;29.19;38.98;99701.13;1728864;80;21195;-58
2021/07/11 08:06:05;;;;;;;0.70;0.62;;;;;;;29.33;37.93;99698.86;1786491;78;22575;-55
2021/07/11 08:08:31;;;;;;;3.37;0.68;;;;;;;29.30;37.76;99705.64;1767763;79;21119;-56
2021/07/11 08:10:59;;;;;;;0.75;0.60;;;;;;;29.34;38.89;99704.21;1766599;79;21316;-53
2021/07/11 08:13:25;;;;;;;3.52;0.90;;;;;;;29.42;39.09;99703.27;1767896;79;21369;-55
2021/07/11 08:15:53;;;;;;;1.32;0.90;;;;;;;29.50;38.29;99699.50;1767414;79;21020;-53
2021/07/11 08:18:21;;;;;;;1.75;0.90;;;;;;;29.52;37.61;99707.11;1768861;79;20966;-55
2021/07/11 08:20:48;;;;;;;1.35;0.90;;;;;;;29.49;38.49;99703.33;1767400;79;21065;-54
2021/07/11 08:23:14;;;;;;;0.90;0.90;;;;;;;29.50;38.66;99705.05;1764280;79;21212;-57
2021/07/11 08:25:40;;;;;;;1.87;1.10;;;;;;;29.52;38.39;99699.62;1769464;79;21453;-59
2021/07/11 08:28:07;;;;;;;2.00;0.90;;;;;;;29.53;38.56;99692.16;1766434;79;21882;-58
2021/07/11 08:30:33;;;;;;;1.50;0.90;;;;;;;29.52;39.02;99693.24;1765217;79;21114;-59
2021/07/11 08:33:00;;;;;;;10.32;1.20;;;;;;;29.56;38.45;99696.80;1765619;79;21064;-58
2021/07/11 08:35:27;;;;;;;1.52;0.90;;;;;;;29.61;39.20;99692.02;1767600;79;22739;-56
2021/07/11 08:37:54;;;;;;;2.95;0.78;;;;;;;29.67;39.54;99692.64;1771270;79;21097;-58
2021/07/11 08:40:20;;;;;;;2.25;0.80;;;;;;;29.75;39.21;99687.48;1768804;79;21088;-57
2021/07/11 08:42:52;;;;;;;4.42;0.80;;;;;;;29.80;37.80;99678.89;1768145;79;22095;-57
2021/07/11 08:45:18;;;;;;;6.28;0.78;;;;;;;29.89;38.70;99689.32;1762328;79;21318;-58
2021/07/11 08:47:45;;;;;;;2.45;0.80;;;;;;;29.98;38.38;99690.41;1762373;79;21046;-58
2021/07/11 08:50:14;;;;;;;1.98;0.80;;;;;;;30.05;38.17;99680.73;1766375;79;20934;-58
2021/07/11 08:52:40;;;;;;;2.08;0.70;;;;;;;30.14;38.81;99677.28;1766717;79;20938;-58
2021/07/11 08:55:14;;;;;;;21.60;2.10;;;;;;;30.22;38.97;99674.36;1760908;79;21041;-58
2021/07/11 08:57:42;;;;;;;9.63;1.10;;;;;;;30.25;38.83;99676.74;1761494;79;21152;-57
2021/07/11 09:00:09;;;;;;;3.70;0.88;;;;;;;30.29;37.65;99675.26;1766117;79;21178;-59
2021/07/11 09:02:35;;;;;;;51.73;4.67;;;;;;;30.33;37.67;99678.83;1766090;79;21456;-56
2021/07/11 09:05:01;;;;;;;5.42;0.70;;;;;;;30.37;37.91;99680.13;1763422;79;21587;-59
2021/07/11 09:07:29;;;;;;;2.65;0.70;;;;;;;30.43;37.18;99681.25;1755165;80;21117;-58
2021/07/11 09:09:59;;;;;;;1.00;0.60;;;;;;;30.52;36.66;99688.93;1758296;80;21444;-58
2021/07/11 09:12:26;;;;;;;3.45;0.70;;;;;;;30.60;36.73;99686.84;1758900;80;20978;-58
2021/07/11 09:14:52;;;;;;;1.15;0.70;;;;;;;30.66;35.79;99688.80;1759852;80;22561;-57
2021/07/11 09:17:19;;;;;;;0.93;0.70;;;;;;;30.70;35.34;99679.00;1755781;79;21789;-59
2021/07/11 09:19:49;;;;;;;1.62;0.70;;;;;;;30.78;35.88;99683.53;1758098;79;21530;-58
2021/07/11 09:22:20;;;;;;;0.70;0.70;;;;;;;30.84;36.91;99676.61;1761460;80;20903;-58
2021/07/11 09:24:59;;;;;;;0.70;0.70;;;;;;;30.91;36.07;99676.64;1762950;79;21105;-55
2021/07/11 09:27:30;;;;;;;0.82;0.80;;;;;;;30.98;35.50;99677.52;1762568;80;20911;-59
2021/07/11 09:30:07;;;;;;;0.90;0.70;;;;;;;31.02;34.74;99669.63;1762111;80;20946;-59
2021/07/11 09:32:35;;;;;;;4.03;0.80;;;;;;;31.04;34.33;99671.16;1760472;80;20888;-58
2021/07/11 09:35:13;;;;;;;0.70;0.70;;;;;;;31.06;34.90;99672.30;1763249;79;20880;-58
2021/07/11 09:37:42;;;;;;;1.50;0.60;;;;;;;31.11;33.47;99669.81;1763025;79;21093;-58
2021/07/11 09:40:09;;;;;;;0.98;0.62;;;;;;;31.14;32.88;99667.45;1762853;80;20911;-58
2021/07/11 09:42:39;;;;;;;2.47;0.62;;;;;;;31.17;33.86;99670.36;1763296;79;20920;-57
2021/07/11 09:45:20;;;;;;;9.23;1.42;;;;;;;31.22;34.25;99673.36;1762250;80;20978;-60
2021/07/11 09:47:48;;;;;;;1.40;0.62;;;;;;;31.24;34.42;99662.89;1763488;80;20915;-59
2021/07/11 09:50:20;;;;;;;2.72;0.68;;;;;;;31.29;34.21;99664.53;1766509;80;21222;-57
2021/07/11 09:52:50;;;;;;;3.58;0.70;;;;;;;31.32;33.54;99661.31;1720811;82;20939;-59
2021/07/11 09:55:20;;;;;;;0.78;0.60;;;;;;;31.36;33.74;99660.38;1700681;82;20922;-59
2021/07/11 09:58:03;;;;;;;0.80;0.70;;;;;;;31.37;33.84;99662.95;1703546;83;21002;-60
2021/07/11 10:00:35;;;;;;;2.07;0.80;;;;;;;31.40;34.31;99665.82;1702976;82;20899;-58
2021/07/11 10:03:04;;;;;;;2.27;0.68;;;;;;;31.41;33.90;99665.61;1704130;82;21114;-58
2021/07/11 10:05:31;;;;;;;1.02;0.80;;;;;;;31.39;32.93;99668.31;1698143;82;20927;-59
2021/07/11 10:07:57;;;;;;;2.80;0.70;;;;;;;31.34;33.11;99663.36;1710881;83;21781;-59
2021/07/11 10:10:32;;;;;;;1.47;0.60;;;;;;;31.33;33.00;99658.00;1710890;83;21489;-61
2021/07/11 10:13:00;;;;;;;4.20;0.75;;;;;;;31.35;33.92;99659.52;1708080;82;21117;-59
2021/07/11 10:15:30;;;;;;;1.45;0.65;;;;;;;31.39;33.77;99662.74;1709808;81;21129;-59
2021/07/11 10:18:05;;;;;;;1.10;0.70;;;;;;;31.42;34.20;99660.38;1711201;81;20954;-59
2021/07/11 10:20:40;;;;;;;1.60;0.80;;;;;;;31.46;34.12;99663.61;1709752;81;21345;-58
2021/07/11 10:23:08;;;;;;;1.90;0.62;;;;;;;31.48;33.33;99653.11;1693065;84;28328;-58
2021/07/11 10:25:36;;;;;;;1.47;0.70;;;;;;;31.53;32.58;99650.56;1708480;81;21157;-58
2021/07/11 10:28:12;;;;;;;2.25;0.70;;;;;;;31.54;32.37;99649.50;1698574;81;21167;-59
2021/07/11 10:30:41;;;;;;;2.87;0.80;;;;;;;31.48;32.37;99653.96;1650925;84;21010;-57
2021/07/11 10:33:14;;;;;;;0.70;0.70;;;;;;;31.44;33.57;99650.44;1710132;81;21766;-57
2021/07/11 10:35:54;;;;;;;0.68;0.68;;;;;;;31.45;32.46;99654.41;1708434;83;26638;-59
2021/07/11 10:38:39;;;;;;;0.80;0.70;;;;;;;31.46;32.56;99648.31;1708108;83;21035;-59
2021/07/11 10:41:19;;;;;;;0.82;0.60;;;;;;;31.52;33.05;99646.92;1707980;83;21175;-56
2021/07/11 10:44:05;;;;;;;1.00;0.80;;;;;;;31.59;32.58;99651.10;1694697;84;21106;-58
2021/07/11 10:46:48;;;;;;;1.05;0.85;;;;;;;31.57;32.37;99642.96;1707803;83;21395;-57
2021/07/11 10:49:30;;;;;;;3.80;0.82;;;;;;;31.42;32.18;99650.64;1660190;83;21034;-58
2021/07/11 10:52:00;;;;;;;1.80;1.67;;;;;;;31.20;32.76;99654.66;1711290;83;21425;-58
2021/07/11 10:54:33;;;;;;;1.47;0.80;;;;;;;31.10;33.40;99651.41;1694965;82;21872;-58
2021/07/11 10:57:10;;;;;;;4.10;0.90;;;;;;;31.06;33.42;99647.29;1708066;81;21081;-59
2021/07/11 10:59:42;;;;;;;4.10;0.68;;;;;;;31.05;33.49;99642.83;1693349;82;22206;-59
2021/07/11 11:02:21;;;;;;;3.33;0.90;;;;;;;31.06;33.88;99646.76;1649695;84;21096;-58
2021/07/11 11:05:20;;;;;;;1.77;0.70;;;;;;;31.13;32.93;99649.63;1706263;81;21142;-58
2021/07/11 11:07:55;;;;;;;0.78;0.60;;;;;;;31.19;32.30;99648.24;1750104;80;21501;-59
2021/07/11 11:10:31;;;;;;;1.35;0.70;;;;;;;31.30;32.96;99639.83;1746151;79;21808;-58
2021/07/11 11:13:10;;;;;;;3.02;1.12;;;;;;;31.39;33.10;99641.32;1753297;80;20938;-62
2021/07/11 11:15:44;;;;;;;1.98;0.65;;;;;;;31.47;33.03;99641.69;1750882;79;20923;-56
2021/07/11 11:18:34;;;;;;;2.45;0.70;;;;;;;31.53;32.83;99639.44;1751657;80;20970;-57
2021/07/11 11:21:11;;;;;;;3.37;0.62;;;;;;;31.55;32.35;99635.39;1752057;80;21101;-59
2021/07/11 11:23:46;;;;;;;1.50;0.70;;;;;;;31.53;32.11;99637.52;1748259;80;21539;-57
2021/07/11 11:26:27;;;;;;;2.98;0.60;;;;;;;31.55;32.83;99633.99;1751867;79;21022;-56
2021/07/11 11:28:57;;;;;;;0.98;0.70;;;;;;;31.62;32.73;99629.00;1748829;80;21138;-58
2021/07/11 11:31:28;;;;;;;0.93;0.80;;;;;;;31.61;31.68;99629.50;1753030;80;21386;-58
2021/07/11 11:34:00;;;;;;;0.72;0.62;;;;;;;31.63;32.48;99626.01;1752783;80;21102;-59
2021/07/11 11:36:48;;;;;;;0.60;0.60;;;;;;;31.67;31.19;99631.98;1753723;80;21030;-58
2021/07/11 11:39:28;;;;;;;0.80;0.60;;;;;;;31.62;31.32;99628.47;1752143;80;21117;-58
2021/07/11 11:41:54;;;;;;;8.20;0.88;;;;;;;31.55;30.53;99625.65;1750807;80;21458;-57
2021/07/11 11:44:23;;;;;;;1.05;0.60;;;;;;;31.53;30.87;99626.92;1711372;82;21093;-58
2021/07/11 11:46:54;;;;;;;5.20;0.70;;;;;;;31.54;30.18;99623.93;1751994;79;21146;-59